This is the latest recevied weather packets stored in our database for station/object IU2EVW-13. If no packets are shown the sender has not sent any weather packets the latest 10 day(s).
| Time | Temp. | Humidity | Pressure | Rain* | Wind** | Luminosity | Snow |
|---|---|---|---|---|---|---|---|
| 1777442328 | 11.11° C | 79% | 1019.9 hPa | - | - | - | - |
| 1777441126 | 11.11° C | 79% | 1019.8 hPa | - | - | - | - |
| 1777439925 | 11.11° C | 78% | 1019.9 hPa | - | - | - | - |
| 1777438724 | 11.11° C | 77% | 1019.8 hPa | - | - | - | - |
| 1777437522 | 10.56° C | 80% | 1019.6 hPa | - | - | - | - |
| 1777436321 | 10.56° C | 81% | 1019.8 hPa | - | - | - | - |
| 1777435119 | 11.11° C | 78% | 1019.9 hPa | - | - | - | - |
| 1777433918 | 10.56° C | 79% | 1019.8 hPa | - | - | - | - |
| 1777432717 | 10.56° C | 78% | 1019.8 hPa | - | - | - | - |
| 1777431515 | 10.56° C | 78% | 1020.1 hPa | - | - | - | - |
| 1777430314 | 11.11° C | 78% | 1020 hPa | - | - | - | - |
| 1777429113 | 11.11° C | 80% | 1020.1 hPa | - | - | - | - |
| 1777427911 | 11.11° C | 80% | 1019.9 hPa | - | - | - | - |
| 1777426710 | 11.11° C | 78% | 1019.9 hPa | - | - | - | - |
| 1777425509 | 11.11° C | 78% | 1020.1 hPa | - | - | - | - |
| 1777424307 | 11.11° C | 78% | 1020.1 hPa | - | - | - | - |
| 1777423106 | 11.11° C | 79% | 1020.1 hPa | - | - | - | - |
| 1777421904 | 11.11° C | 81% | 1020.2 hPa | - | - | - | - |
| 1777420703 | 11.67° C | 80% | 1020 hPa | - | - | - | - |
| 1777419502 | 12.22° C | 79% | 1019.9 hPa | - | - | - | - |
| 1777418300 | 12.22° C | 79% | 1019.9 hPa | - | - | - | - |
| 1777417099 | 12.22° C | 78% | 1019.8 hPa | - | - | - | - |
| 1777415898 | 11.67° C | 78% | 1019.7 hPa | - | - | - | - |
| 1777414696 | 12.22° C | 74% | 1019.4 hPa | - | - | - | - |
| 1777413495 | 12.78° C | 69% | 1019 hPa | - | - | - | - |
* Rain since midnight (hover to see other rain measurements)
** Current wind speed in m/s (hover to see current wind gust speed)